Time;durP1;ratioP1;P1;durP2;ratioP2;P2;SDS_P1;SDS_P2;PMS_P1;PMS_P2;Temp;Humidity;BMP_temperature;BMP_pressure;BME280_temperature;BME280_humidity;BME280_pressure;Samples;Min_cycle;Max_cycle;Signal;HPM_P1;HPM_P2
2021/03/19 00:00:59;;;;;;;12.90;8.10;;;6.20;82.90;;;;;;5000015;28;20045;-75
2021/03/19 00:03:24;;;;;;;11.60;6.23;;;6.20;82.70;;;;;;5017246;28;20037;-75
2021/03/19 00:05:50;;;;;;;12.03;7.43;;;6.20;82.30;;;;;;5033976;28;20038;-75
2021/03/19 00:08:15;;;;;;;17.57;9.27;;;6.30;83.10;;;;;;5017284;28;20479;-74
2021/03/19 00:10:41;;;;;;;13.13;8.23;;;6.30;83.10;;;;;;5016030;28;20026;-75
2021/03/19 00:13:09;;;;;;;9.60;6.80;;;6.40;82.60;;;;;;5034907;28;20029;-76
2021/03/19 00:15:36;;;;;;;9.90;6.83;;;6.40;82.80;;;;;;5034698;28;20100;-75
2021/03/19 00:18:03;;;;;;;16.70;8.40;;;6.40;82.60;;;;;;5033336;28;20496;-74
2021/03/19 00:20:31;;;;;;;7.50;6.40;;;6.30;82.50;;;;;;5034441;28;20025;-75
2021/03/19 00:22:57;;;;;;;10.50;5.63;;;6.20;82.10;;;;;;5033460;28;20060;-74
2021/03/19 00:25:22;;;;;;;11.43;7.17;;;5.90;81.80;;;;;;4984400;28;20026;-75
2021/03/19 00:27:48;;;;;;;11.73;7.17;;;5.80;82.70;;;;;;5015978;28;20034;-75
2021/03/19 00:30:14;;;;;;;11.57;7.40;;;5.80;83.30;;;;;;5034619;28;20355;-75
2021/03/19 00:32:42;;;;;;;8.90;6.83;;;5.80;83.10;;;;;;5033493;28;20038;-81
2021/03/19 00:35:08;;;;;;;15.53;8.43;;;5.70;82.90;;;;;;5016851;28;20073;-75
2021/03/19 00:37:34;;;;;;;9.87;7.33;;;5.80;83.40;;;;;;5033827;28;20033;-75
2021/03/19 00:40:00;;;;;;;11.77;8.27;;;5.70;82.40;;;;;;5015650;28;20228;-75
2021/03/19 00:42:25;;;;;;;10.80;7.17;;;5.60;83.00;;;;;;5016365;28;20060;-75
2021/03/19 00:44:51;;;;;;;10.97;8.07;;;5.70;82.70;;;;;;4999251;28;20029;-76
2021/03/19 00:47:17;;;;;;;10.93;7.17;;;5.70;82.90;;;;;;5015861;28;20037;-75
2021/03/19 00:49:42;;;;;;;12.53;8.00;;;5.60;82.70;;;;;;4983300;28;20022;-82
2021/03/19 00:52:08;;;;;;;9.90;7.00;;;5.50;82.90;;;;;;5033673;28;20033;-75
2021/03/19 00:54:34;;;;;;;15.23;7.63;;;5.50;82.90;;;;;;5016399;28;20072;-75
2021/03/19 00:56:59;;;;;;;12.07;7.53;;;5.30;82.90;;;;;;5015117;28;20533;-76
2021/03/19 00:59:25;;;;;;;10.27;7.13;;;5.20;83.30;;;;;;5016163;28;20029;-75
2021/03/19 01:01:51;;;;;;;8.53;6.80;;;5.20;83.70;;;;;;5015286;28;20026;-76
2021/03/19 01:04:17;;;;;;;10.40;6.30;;;5.00;83.40;;;;;;5015853;28;20084;-76
2021/03/19 01:06:42;;;;;;;13.83;7.07;;;5.00;83.50;;;;;;5015553;28;20037;-80
2021/03/19 01:09:08;;;;;;;8.87;6.60;;;5.00;83.70;;;;;;5033269;28;20108;-75
2021/03/19 01:11:34;;;;;;;9.77;6.67;;;5.00;83.70;;;;;;4998947;28;20436;-78
2021/03/19 01:14:00;;;;;;;9.43;6.83;;;4.90;83.40;;;;;;5014613;28;20031;-76
2021/03/19 01:16:26;;;;;;;8.17;6.23;;;4.90;83.80;;;;;;5033067;28;20029;-75
2021/03/19 01:18:52;;;;;;;9.37;6.47;;;4.90;83.70;;;;;;5015301;28;20098;-76
2021/03/19 01:21:18;;;;;;;8.70;6.40;;;4.80;84.10;;;;;;5015526;28;20073;-75
2021/03/19 01:23:46;;;;;;;10.17;7.20;;;4.70;84.20;;;;;;5015549;28;20393;-75
2021/03/19 01:26:12;;;;;;;10.77;6.73;;;4.70;84.60;;;;;;5033181;28;20030;-75
2021/03/19 01:28:38;;;;;;;11.53;6.93;;;4.60;84.50;;;;;;5034773;28;20385;-75
2021/03/19 01:31:06;;;;;;;9.73;7.53;;;4.50;84.40;;;;;;5016956;28;20029;-76
2021/03/19 01:33:32;;;;;;;10.07;6.97;;;4.30;84.90;;;;;;5033788;28;20123;-76
2021/03/19 01:36:02;;;;;;;10.70;7.10;;;4.30;85.20;;;;;;5051125;28;20037;-76
2021/03/19 01:38:28;;;;;;;12.77;8.07;;;4.30;85.10;;;;;;5015453;28;20036;-76
2021/03/19 01:40:53;;;;;;;14.77;8.17;;;4.20;85.70;;;;;;5032176;28;20029;-76
2021/03/19 01:43:31;;;;;;;9.50;6.90;;;4.20;86.30;;;;;;5015150;28;20109;-76
2021/03/19 01:46:34;;;;;;;10.30;7.03;;;4.20;86.70;;;;;;5014550;28;20119;-76
2021/03/19 01:49:38;;;;;;;10.27;6.72;;;4.10;85.90;;;;;;5014507;28;20505;-76
2021/03/19 01:52:41;;;;;;;12.67;7.87;;;4.10;85.70;;;;;;5032157;28;20109;-75
2021/03/19 01:55:44;;;;;;;10.35;6.57;;;4.00;86.10;;;;;;5032407;28;20022;-75
2021/03/19 01:58:47;;;;;;;10.27;6.68;;;3.90;86.00;;;;;;5030653;28;20631;-76
2021/03/19 02:01:51;;;;;;;11.55;6.35;;;3.90;86.00;;;;;;5013830;28;20280;-76
2021/03/19 02:04:54;;;;;;;9.88;6.63;;;4.00;86.20;;;;;;5032408;28;20044;-77
2021/03/19 02:07:57;;;;;;;9.25;6.38;;;3.90;86.00;;;;;;5032232;28;20108;-76
2021/03/19 02:11:00;;;;;;;5.90;4.80;;;3.80;86.10;;;;;;5032293;28;20026;-76
2021/03/19 02:14:03;;;;;;;9.75;5.63;;;3.70;85.50;;;;;;5014725;28;20373;-76
2021/03/19 02:17:06;;;;;;;6.43;5.32;;;3.50;85.50;;;;;;5014181;28;20041;-76
2021/03/19 02:20:09;;;;;;;8.55;5.18;;;3.60;85.90;;;;;;5015031;28;20044;-75
2021/03/19 02:23:12;;;;;;;7.38;5.68;;;3.50;85.60;;;;;;5031908;28;20045;-76
2021/03/19 02:26:15;;;;;;;8.43;6.03;;;3.40;85.80;;;;;;5014987;28;20426;-76
2021/03/19 02:29:18;;;;;;;9.23;5.38;;;3.50;86.20;;;;;;5032366;28;20061;-76
2021/03/19 02:31:55;;;;;;;7.65;5.05;;;3.60;85.50;;;;;;5032426;28;20425;-76
2021/03/19 02:34:40;;;;;;;7.73;4.80;;;3.60;85.30;;;;;;5031659;28;20037;-76
2021/03/19 02:37:09;;;;;;;7.23;5.53;;;3.60;85.70;;;;;;5012853;28;20021;-76
2021/03/19 02:39:35;;;;;;;8.93;5.93;;;3.60;85.90;;;;;;5032835;28;20090;-75
2021/03/19 02:42:01;;;;;;;14.87;6.30;;;3.60;85.70;;;;;;5031203;28;20044;-76
2021/03/19 02:44:27;;;;;;;9.63;6.17;;;3.50;85.70;;;;;;4998109;28;20021;-75
2021/03/19 02:46:52;;;;;;;8.23;6.50;;;3.40;85.80;;;;;;5014389;28;20026;-75
2021/03/19 02:49:19;;;;;;;8.67;6.50;;;3.40;86.20;;;;;;5013568;28;20253;-75
2021/03/19 02:51:44;;;;;;;9.57;7.23;;;3.40;85.90;;;;;;5031369;28;20393;-75
2021/03/19 02:54:10;;;;;;;10.63;7.67;;;3.40;86.20;;;;;;5031306;28;20112;-75
2021/03/19 02:56:36;;;;;;;10.17;7.63;;;3.40;86.80;;;;;;5031015;28;20378;-76
2021/03/19 02:59:01;;;;;;;12.23;6.37;;;3.50;87.10;;;;;;5012984;28;20048;-81
2021/03/19 03:01:27;;;;;;;8.57;6.00;;;3.50;86.90;;;;;;4997844;28;20029;-76
2021/03/19 03:03:53;;;;;;;9.87;5.87;;;3.60;86.90;;;;;;5014340;28;20446;-75
2021/03/19 03:06:18;;;;;;;8.53;6.60;;;3.60;87.30;;;;;;5012863;28;20047;-75
2021/03/19 03:08:44;;;;;;;7.20;6.10;;;3.70;87.30;;;;;;5014083;28;20124;-76
2021/03/19 03:11:10;;;;;;;7.83;5.70;;;3.70;87.10;;;;;;4996678;28;20033;-75
2021/03/19 03:13:35;;;;;;;9.13;6.33;;;3.70;87.00;;;;;;5014440;28;20470;-75
2021/03/19 03:16:03;;;;;;;10.50;6.83;;;3.90;87.00;;;;;;5013864;28;20501;-80
2021/03/19 03:18:29;;;;;;;10.63;6.40;;;4.00;87.10;;;;;;5032009;28;20094;-75
2021/03/19 03:20:58;;;;;;;9.30;6.40;;;4.10;87.30;;;;;;5013739;28;20537;-75
2021/03/19 03:23:26;;;;;;;9.93;6.43;;;4.10;87.00;;;;;;5031021;28;20032;-75
2021/03/19 03:25:53;;;;;;;8.60;6.67;;;4.20;87.60;;;;;;5031008;28;20029;-75
2021/03/19 03:28:19;;;;;;;10.57;7.57;;;4.10;86.70;;;;;;5032061;28;20026;-75
2021/03/19 03:30:49;;;;;;;9.57;7.33;;;4.00;87.10;;;;;;5017735;28;20108;-75
2021/03/19 03:33:16;;;;;;;10.70;7.23;;;3.90;86.40;;;;;;5034575;28;20432;-75
2021/03/19 03:35:43;;;;;;;12.37;7.03;;;3.80;86.70;;;;;;5035336;28;20444;-76
2021/03/19 03:38:12;;;;;;;9.97;7.20;;;3.80;87.30;;;;;;5000537;28;20076;-75
2021/03/19 03:41:06;;;;;;;8.47;6.80;;;3.70;87.10;;;;;;5017765;28;20079;-76
2021/03/19 03:43:34;;;;;;;10.03;7.27;;;3.60;87.20;;;;;;5013110;28;20033;-75
2021/03/19 03:46:02;;;;;;;11.40;7.17;;;3.60;87.10;;;;;;5034920;28;20037;-75
2021/03/19 03:48:30;;;;;;;12.17;7.83;;;3.50;87.50;;;;;;5016721;28;20102;-75
2021/03/19 03:50:57;;;;;;;13.57;8.20;;;3.60;87.50;;;;;;5016960;28;20147;-75
2021/03/19 03:53:23;;;;;;;14.00;9.13;;;3.50;87.50;;;;;;5034210;28;20374;-76
2021/03/19 03:55:49;;;;;;;11.90;8.73;;;3.40;88.10;;;;;;5034896;28;20059;-75
2021/03/19 03:58:17;;;;;;;14.67;8.50;;;3.30;87.70;;;;;;5034026;28;20389;-76
2021/03/19 04:00:43;;;;;;;10.27;8.47;;;3.20;88.30;;;;;;5034261;28;20022;-75
2021/03/19 04:03:09;;;;;;;11.77;9.33;;;3.20;88.50;;;;;;5034611;28;20033;-81
2021/03/19 04:05:38;;;;;;;10.83;9.27;;;3.20;88.50;;;;;;5017012;28;20029;-75
2021/03/19 04:08:06;;;;;;;16.80;11.87;;;3.20;88.70;;;;;;5017014;28;20117;-75
2021/03/19 04:10:32;;;;;;;18.10;13.03;;;3.20;88.70;;;;;;5033932;28;20029;-76
2021/03/19 04:12:58;;;;;;;15.67;11.50;;;3.30;88.90;;;;;;5016969;28;20032;-75
2021/03/19 04:15:24;;;;;;;16.03;10.90;;;3.20;88.30;;;;;;5016418;28;20120;-76
2021/03/19 04:17:55;;;;;;;12.67;10.87;;;3.10;88.70;;;;;;5016660;28;20072;-76
2021/03/19 04:20:21;;;;;;;15.10;10.40;;;3.10;88.70;;;;;;5016203;28;20482;-75
2021/03/19 04:22:47;;;;;;;15.77;10.53;;;3.10;88.80;;;;;;5016639;28;20058;-76
2021/03/19 04:25:14;;;;;;;12.73;9.00;;;3.10;89.00;;;;;;5034004;28;20142;-81
2021/03/19 04:27:47;;;;;;;13.13;9.60;;;3.20;89.20;;;;;;5016499;28;20490;-75
2021/03/19 04:30:22;;;;;;;11.30;9.30;;;3.20;89.30;;;;;;5032459;28;20112;-82
2021/03/19 04:32:48;;;;;;;15.50;10.27;;;3.20;89.20;;;;;;5034152;28;20492;-76
2021/03/19 04:35:17;;;;;;;14.77;10.10;;;3.10;88.70;;;;;;5033837;28;20068;-81
2021/03/19 04:37:42;;;;;;;14.63;9.90;;;3.10;89.00;;;;;;5033890;28;20033;-76
2021/03/19 04:40:09;;;;;;;13.80;9.77;;;3.10;89.00;;;;;;5016504;28;20041;-75
2021/03/19 04:42:35;;;;;;;16.37;9.33;;;3.10;89.00;;;;;;4999391;28;20056;-75
2021/03/19 04:45:02;;;;;;;12.83;9.23;;;3.00;88.80;;;;;;5016578;28;20033;-75
2021/03/19 04:47:28;;;;;;;12.13;9.53;;;2.90;88.60;;;;;;5032693;28;20033;-76
2021/03/19 04:49:53;;;;;;;12.93;10.20;;;2.90;88.80;;;;;;5016139;28;20424;-75
2021/03/19 04:52:19;;;;;;;14.13;9.87;;;2.90;89.10;;;;;;5015441;28;20025;-75
2021/03/19 04:54:45;;;;;;;15.03;11.37;;;3.00;89.10;;;;;;5016483;28;20489;-75
2021/03/19 04:57:10;;;;;;;14.30;9.73;;;2.90;88.70;;;;;;5033561;28;20041;-75
2021/03/19 04:59:36;;;;;;;12.03;10.03;;;2.90;88.70;;;;;;4998633;28;20049;-75
2021/03/19 05:02:03;;;;;;;12.47;10.17;;;2.90;88.30;;;;;;5016179;28;20036;-75
2021/03/19 05:04:29;;;;;;;15.30;10.67;;;2.80;88.20;;;;;;5015346;28;20034;-74
2021/03/19 05:07:01;;;;;;;11.90;9.73;;;2.90;88.10;;;;;;5015526;28;20486;-74
2021/03/19 05:09:31;;;;;;;15.50;10.60;;;2.90;88.20;;;;;;5015219;28;20428;-74
2021/03/19 05:11:58;;;;;;;14.13;9.37;;;3.00;88.30;;;;;;5033931;28;20029;-74
2021/03/19 05:14:24;;;;;;;15.07;10.17;;;3.10;88.30;;;;;;5032781;28;20107;-75
2021/03/19 05:16:50;;;;;;;11.53;9.83;;;3.20;87.80;;;;;;4999208;28;20120;-74
2021/03/19 05:19:18;;;;;;;15.20;10.90;;;3.20;87.70;;;;;;5033665;28;20026;-74
2021/03/19 05:21:43;;;;;;;15.47;10.60;;;3.10;87.90;;;;;;5032747;28;20050;-74
2021/03/19 05:24:10;;;;;;;15.47;10.37;;;3.00;87.50;;;;;;5033285;28;20477;-74
2021/03/19 05:26:37;;;;;;;13.60;11.07;;;2.90;87.60;;;;;;4997884;28;20048;-75
2021/03/19 05:29:02;;;;;;;14.57;11.17;;;2.90;88.30;;;;;;5016328;28;20021;-74
2021/03/19 05:31:28;;;;;;;16.10;11.33;;;2.90;88.20;;;;;;5014710;28;20120;-74
2021/03/19 05:33:54;;;;;;;14.40;11.27;;;3.10;89.40;;;;;;5033161;28;20037;-74
2021/03/19 05:36:27;;;;;;;18.87;12.03;;;3.10;88.50;;;;;;5014730;28;20057;-80
2021/03/19 05:38:53;;;;;;;19.58;11.60;;;2.90;87.50;;;;;;5033177;28;20053;-74
2021/03/19 05:41:21;;;;;;;17.70;11.53;;;2.90;87.90;;;;;;5015163;28;20048;-75
2021/03/19 05:43:53;;;;;;;13.87;10.37;;;2.90;88.20;;;;;;5014525;28;20028;-74
2021/03/19 05:46:27;;;;;;;16.58;11.50;;;2.90;87.90;;;;;;5015332;28;20026;-74
2021/03/19 05:49:24;;;;;;;16.17;11.77;;;3.10;88.70;;;;;;5033146;28;20021;-74
2021/03/19 05:51:55;;;;;;;17.87;11.33;;;3.20;88.50;;;;;;5019480;28;20041;-74
2021/03/19 05:54:23;;;;;;;17.43;11.23;;;3.20;88.60;;;;;;5014917;28;20022;-77
2021/03/19 05:57:05;;;;;;;18.13;11.50;;;3.20;88.20;;;;;;5032055;28;20116;-75
2021/03/19 05:59:36;;;;;;;17.07;11.17;;;3.30;89.00;;;;;;5014510;28;20506;-75
2021/03/19 06:02:03;;;;;;;17.40;10.13;;;3.60;89.50;;;;;;5008838;28;20087;-76
2021/03/19 06:04:31;;;;;;;15.53;10.50;;;4.00;88.20;;;;;;5013733;28;20087;-75
2021/03/19 06:07:03;;;;;;;16.03;9.73;;;4.40;87.50;;;;;;5029873;28;20108;-78
2021/03/19 06:09:40;;;;;;;13.60;9.20;;;4.80;84.50;;;;;;4996329;28;20030;-76
2021/03/19 06:12:17;;;;;;;13.13;10.00;;;5.10;82.80;;;;;;5052328;28;20021;-75
2021/03/19 06:14:54;;;;;;;15.97;9.27;;;5.40;80.90;;;;;;5032092;28;20025;-75
2021/03/19 06:17:29;;;;;;;12.57;9.30;;;5.70;79.20;;;;;;5034355;28;20037;-77
2021/03/19 06:20:08;;;;;;;12.87;9.60;;;6.20;77.90;;;;;;5050514;28;20428;-75
2021/03/19 06:22:34;;;;;;;14.80;9.30;;;6.60;76.30;;;;;;5036037;28;20052;-75
2021/03/19 06:25:03;;;;;;;11.67;9.20;;;7.00;75.70;;;;;;5032129;28;20022;-76
2021/03/19 06:27:54;;;;;;;11.50;8.83;;;7.50;73.90;;;;;;5031319;28;20144;-79
2021/03/19 06:30:41;;;;;;;10.87;8.63;;;7.90;73.40;;;;;;5014073;28;20513;-76
2021/03/19 06:33:12;;;;;;;9.53;7.73;;;8.40;71.20;;;;;;5030928;28;20037;-74
2021/03/19 06:35:41;;;;;;;12.50;8.30;;;8.80;68.80;;;;;;5013299;28;20026;-76
2021/03/19 06:38:53;;;;;;;12.73;8.63;;;8.90;67.20;;;;;;5029365;28;20121;-77
2021/03/19 06:41:29;;;;;;;12.30;8.47;;;8.90;65.40;;;;;;4983666;28;20033;-76
2021/03/19 06:44:31;;;;;;;11.73;8.97;;;9.00;66.80;;;;;;5017144;28;20147;-75
2021/03/19 06:47:03;;;;;;;12.90;8.50;;;9.60;66.60;;;;;;4935072;29;20027;-76
2021/03/19 06:49:48;;;;;;;12.15;8.35;;;10.00;64.20;;;;;;4986267;28;20474;-77
2021/03/19 06:52:32;;;;;;;11.63;7.83;;;10.20;62.00;;;;;;5013948;28;20055;-76
2021/03/19 06:55:00;;;;;;;10.17;8.00;;;9.80;61.00;;;;;;5014264;28;20029;-76
2021/03/19 06:57:28;;;;;;;10.77;9.53;;;9.60;61.30;;;;;;5031643;28;20179;-75
2021/03/19 07:00:02;;;;;;;10.60;8.10;;;9.60;62.90;;;;;;5031093;28;20252;-75
2021/03/19 07:02:40;;;;;;;8.87;7.20;;;9.60;60.90;;;;;;5013031;28;20385;-75
2021/03/19 07:05:40;;;;;;;10.50;7.10;;;9.80;60.70;;;;;;5032348;28;20037;-76
2021/03/19 07:08:13;;;;;;;12.17;7.67;;;9.80;58.90;;;;;;5022066;28;20549;-77
2021/03/19 07:10:46;;;;;;;9.63;6.93;;;9.50;58.90;;;;;;4993765;28;20038;-78
2021/03/19 07:13:30;;;;;;;11.10;7.82;;;8.90;60.90;;;;;;4992376;28;20120;-77
2021/03/19 07:16:14;;;;;;;15.20;9.10;;;9.30;62.10;;;;;;5010723;28;20018;-76
2021/03/19 07:18:52;;;;;;;10.80;6.90;;;9.80;60.70;;;;;;4998871;28;20025;-77
2021/03/19 07:21:30;;;;;;;9.60;7.27;;;9.40;57.90;;;;;;5031197;28;20059;-78
2021/03/19 07:24:19;;;;;;;10.97;7.20;;;9.20;59.80;;;;;;5013151;28;20022;-77
2021/03/19 07:26:50;;;;;;;15.13;9.57;;;9.30;59.40;;;;;;5012243;28;20036;-77
2021/03/19 07:29:25;;;;;;;12.67;9.60;;;9.40;60.70;;;;;;5013274;28;20036;-76
2021/03/19 07:32:13;;;;;;;12.20;7.80;;;9.50;60.10;;;;;;5000117;28;20437;-77
2021/03/19 07:34:38;;;;;;;9.53;7.27;;;10.20;59.30;;;;;;4996389;28;20041;-81
2021/03/19 07:37:27;;;;;;;8.57;5.93;;;10.20;56.90;;;;;;5031390;28;20033;-76
2021/03/19 07:40:22;;;;;;;13.97;9.43;;;10.10;55.70;;;;;;5030659;28;20029;-76
2021/03/19 07:43:12;;;;;;;17.30;11.53;;;9.90;59.30;;;;;;5029063;28;20057;-77
2021/03/19 07:45:49;;;;;;;7.07;5.83;;;10.30;58.50;;;;;;5013795;28;20505;-81
2021/03/19 07:48:37;;;;;;;11.53;8.20;;;10.50;54.50;;;;;;5005814;28;20116;-76
2021/03/19 07:51:02;;;;;;;7.93;5.83;;;10.20;55.60;;;;;;5029571;28;20056;-76
2021/03/19 07:54:07;;;;;;;16.83;11.80;;;10.00;55.20;;;;;;5012765;28;20029;-76
2021/03/19 07:56:51;;;;;;;12.37;8.00;;;10.00;56.80;;;;;;5028390;28;20128;-78
2021/03/19 07:59:45;;;;;;;12.73;9.53;;;10.80;56.40;;;;;;5008637;28;20037;-76
2021/03/19 08:02:13;;;;;;;15.50;11.03;;;11.10;55.60;;;;;;5028258;28;20076;-76
2021/03/19 08:04:42;;;;;;;8.17;6.13;;;11.60;55.00;;;;;;5014309;28;20051;-82
2021/03/19 08:07:35;;;;;;;10.47;7.33;;;11.40;51.60;;;;;;5010744;28;20060;-77
2021/03/19 08:10:10;;;;;;;9.07;5.82;;;11.80;53.40;;;;;;5024583;28;20046;-75
2021/03/19 08:13:20;;;;;;;16.67;11.70;;;11.70;51.50;;;;;;5026443;28;20484;-77
2021/03/19 08:15:54;;;;;;;11.60;8.53;;;12.40;54.70;;;;;;5008484;28;20033;-76
2021/03/19 08:18:30;;;;;;;19.50;14.63;;;13.10;50.90;;;;;;5016381;28;20029;-75
2021/03/19 08:21:01;;;;;;;13.90;8.65;;;12.90;53.10;;;;;;5016414;28;20041;-75
2021/03/19 08:23:54;;;;;;;7.68;4.57;;;13.40;50.20;;;;;;5008097;28;20052;-76
2021/03/19 08:26:41;;;;;;;10.00;6.70;;;13.00;47.70;;;;;;5004361;28;20022;-75
2021/03/19 08:29:28;;;;;;;5.88;4.25;;;13.20;48.40;;;;;;5009759;28;20053;-75
2021/03/19 08:32:12;;;;;;;7.83;5.57;;;12.70;47.50;;;;;;5016474;28;20029;-76
2021/03/19 08:35:09;;;;;;;13.55;9.07;;;12.50;48.50;;;;;;5034764;28;20034;-75
2021/03/19 08:37:48;;;;;;;6.03;4.43;;;12.40;51.50;;;;;;5016417;28;20037;-80
2021/03/19 08:40:38;;;;;;;19.40;12.00;;;12.90;48.00;;;;;;5015158;28;20033;-76
2021/03/19 08:43:12;;;;;;;11.70;8.93;;;13.40;51.20;;;;;;5033840;28;20655;-76
2021/03/19 08:45:38;;;;;;;17.50;12.68;;;13.80;48.20;;;;;;5031218;28;20057;-75
2021/03/19 08:48:11;;;;;;;11.27;5.32;;;14.00;50.80;;;;;;5015739;28;20489;-74
2021/03/19 08:50:39;;;;;;;7.00;5.18;;;14.20;45.80;;;;;;5033076;28;20030;-75
2021/03/19 08:53:12;;;;;;;9.10;6.75;;;14.20;45.70;;;;;;5015815;28;20018;-74
2021/03/19 08:55:39;;;;;;;9.43;6.40;;;14.20;46.80;;;;;;5016301;28;20029;-75
2021/03/19 08:58:48;;;;;;;7.13;4.38;;;14.30;46.40;;;;;;5015116;28;20235;-75
2021/03/19 09:01:34;;;;;;;10.85;7.82;;;14.60;44.30;;;;;;4981071;28;20038;-76
2021/03/19 09:04:00;;;;;;;11.77;7.03;;;14.20;43.70;;;;;;4951295;28;20123;-76
2021/03/19 09:06:30;;;;;;;7.93;5.60;;;14.20;44.80;;;;;;4986062;28;20449;-75
2021/03/19 09:09:12;;;;;;;12.82;9.77;;;14.30;45.50;;;;;;4996296;28;20533;-75
2021/03/19 09:11:40;;;;;;;9.13;6.07;;;13.90;44.60;;;;;;4996704;28;20026;-75
2021/03/19 09:14:14;;;;;;;13.18;10.02;;;13.60;44.90;;;;;;4995550;28;20037;-76
2021/03/19 09:16:45;;;;;;;10.23;6.97;;;13.50;45.00;;;;;;5013716;28;20030;-74
2021/03/19 09:19:29;;;;;;;8.27;5.50;;;13.50;46.30;;;;;;4995893;28;20354;-75
2021/03/19 09:22:26;;;;;;;14.52;10.20;;;13.40;45.30;;;;;;5018490;28;20053;-76
2021/03/19 09:25:17;;;;;;;8.70;4.03;;;13.40;48.20;;;;;;5015198;28;20025;-81
2021/03/19 09:28:06;;;;;;;13.93;10.90;;;13.90;43.40;;;;;;5015181;28;20496;-75
2021/03/19 09:30:43;;;;;;;14.77;11.15;;;13.80;46.30;;;;;;5016014;28;20394;-74
2021/03/19 09:33:44;;;;;;;9.48;5.43;;;14.50;47.00;;;;;;5015050;28;20183;-74
2021/03/19 09:36:48;;;;;;;13.00;9.02;;;14.10;43.20;;;;;;5002603;28;20522;-74
2021/03/19 09:39:44;;;;;;;9.93;6.82;;;14.90;44.90;;;;;;5029740;28;20029;-75
2021/03/19 09:42:22;;;;;;;10.00;6.40;;;15.30;43.90;;;;;;5011020;28;20541;-74
2021/03/19 09:44:59;;;;;;;7.25;5.30;;;15.20;43.00;;;;;;5030538;28;20036;-75
2021/03/19 09:47:41;;;;;;;7.53;5.82;;;14.90;42.20;;;;;;5029703;28;20034;-74
2021/03/19 09:50:15;;;;;;;13.70;10.07;;;14.60;42.50;;;;;;5032823;28;20064;-75
2021/03/19 09:53:06;;;;;;;7.40;5.47;;;14.60;45.50;;;;;;5033200;28;20101;-74
2021/03/19 09:56:01;;;;;;;8.55;5.45;;;14.80;42.10;;;;;;5015473;28;20017;-75
2021/03/19 09:58:42;;;;;;;9.45;6.57;;;13.60;43.40;;;;;;5029939;28;20048;-74
2021/03/19 10:01:40;;;;;;;8.90;5.47;;;13.10;45.00;;;;;;5016865;28;20021;-75
2021/03/19 10:04:08;;;;;;;8.27;6.38;;;12.10;46.30;;;;;;5017758;28;20040;-73
2021/03/19 10:06:45;;;;;;;3.53;1.97;;;12.00;47.20;;;;;;5018662;28;20064;-74
2021/03/19 10:09:38;;;;;;;3.57;2.07;;;11.90;44.50;;;;;;5036300;28;20116;-72
2021/03/19 10:12:35;;;;;;;6.07;3.20;;;11.60;43.40;;;;;;5035185;28;20029;-72
2021/03/19 10:15:17;;;;;;;5.87;2.97;;;10.90;45.00;;;;;;5019000;28;20042;-73
2021/03/19 10:17:51;;;;;;;5.27;3.33;;;10.80;46.50;;;;;;5017120;28;20465;-73
2021/03/19 10:20:22;;;;;;;7.10;3.40;;;11.60;44.50;;;;;;5034278;28;20069;-74
2021/03/19 10:22:54;;;;;;;4.90;2.50;;;12.30;44.50;;;;;;5034961;28;20136;-73
2021/03/19 10:25:31;;;;;;;3.57;2.00;;;13.30;42.80;;;;;;5033914;28;20109;-74
2021/03/19 10:28:07;;;;;;;4.27;2.87;;;13.10;40.90;;;;;;5034344;28;20022;-79
2021/03/19 10:30:37;;;;;;;2.13;1.03;;;12.20;42.70;;;;;;5032814;28;20024;-73
2021/03/19 10:33:29;;;;;;;3.83;1.73;;;11.60;41.20;;;;;;5032846;28;20029;-73
2021/03/19 10:36:07;;;;;;;2.30;1.53;;;10.40;44.20;;;;;;5023775;28;20488;-72
2021/03/19 10:38:45;;;;;;;4.73;3.23;;;9.90;45.90;;;;;;5030204;28;20017;-72
2021/03/19 10:41:31;;;;;;;3.33;1.47;;;10.10;47.20;;;;;;5030832;28;20049;-73
2021/03/19 10:44:03;;;;;;;4.50;2.10;;;10.50;45.20;;;;;;5029923;28;20017;-73
2021/03/19 10:46:54;;;;;;;13.13;7.63;;;10.70;45.40;;;;;;5031713;28;20025;-73
2021/03/19 10:49:38;;;;;;;3.67;1.73;;;10.80;47.10;;;;;;5012885;28;20026;-74
2021/03/19 10:52:17;;;;;;;7.43;4.03;;;11.60;43.80;;;;;;5022889;28;20022;-81
2021/03/19 10:54:46;;;;;;;12.97;7.87;;;11.60;44.50;;;;;;5033361;28;20053;-73
2021/03/19 10:57:21;;;;;;;6.80;4.03;;;12.50;46.60;;;;;;5014420;28;20034;-73
2021/03/19 10:59:50;;;;;;;5.83;4.07;;;12.60;43.20;;;;;;5015015;28;20476;-73
2021/03/19 11:02:24;;;;;;;10.80;6.43;;;12.60;42.30;;;;;;5030847;28;20105;-74
2021/03/19 11:04:55;;;;;;;6.90;4.60;;;12.50;42.30;;;;;;5023757;28;20072;-74
2021/03/19 11:07:27;;;;;;;6.20;3.07;;;12.70;43.80;;;;;;4998370;28;20038;-71
2021/03/19 11:10:05;;;;;;;12.03;6.40;;;13.20;42.80;;;;;;5004323;28;20028;-73
2021/03/19 11:12:36;;;;;;;9.83;5.23;;;13.10;43.10;;;;;;5027536;28;20291;-72
2021/03/19 11:15:08;;;;;;;9.70;6.25;;;13.20;42.90;;;;;;5027052;28;20513;-74
2021/03/19 11:17:34;;;;;;;10.18;6.38;;;13.50;43.50;;;;;;5027639;28;20489;-74
2021/03/19 11:20:06;;;;;;;4.60;2.95;;;13.60;41.70;;;;;;5012394;28;20030;-73
2021/03/19 11:22:46;;;;;;;3.42;1.70;;;13.70;40.70;;;;;;5031583;28;20098;-73
2021/03/19 11:25:23;;;;;;;7.97;5.28;;;13.20;39.60;;;;;;5028903;28;20461;-72
2021/03/19 11:27:50;;;;;;;11.45;6.18;;;12.70;40.80;;;;;;5013677;28;20112;-72
2021/03/19 11:30:28;;;;;;;5.80;3.40;;;12.90;44.60;;;;;;4992580;28;20080;-77
2021/03/19 11:33:14;;;;;;;8.37;5.97;;;13.50;42.80;;;;;;5026325;28;20108;-74
2021/03/19 11:35:40;;;;;;;9.40;5.97;;;12.80;40.10;;;;;;5009517;28;20393;-76
2021/03/19 11:38:34;;;;;;;2.20;0.83;;;12.70;42.90;;;;;;5008080;28;20041;-78
2021/03/19 11:41:00;;;;;;;;;;;12.00;39.60;;;;;;5024066;28;20044;-75
2021/03/19 11:43:26;;;;;;;8.00;5.67;;;11.40;41.30;;;;;;5009190;28;19913;-75
2021/03/19 11:45:52;;;;;;;4.43;1.20;;;11.20;43.70;;;;;;5027636;28;20540;-76
2021/03/19 11:48:20;;;;;;;4.73;1.57;;;11.10;40.60;;;;;;5006040;28;20061;-78
2021/03/19 11:51:06;;;;;;;23.50;12.17;;;11.10;42.10;;;;;;5008867;28;20045;-79
2021/03/19 11:53:32;;;;;;;6.97;4.50;;;11.20;47.20;;;;;;5010186;28;20746;-75
2021/03/19 11:55:58;;;;;;;4.20;2.33;;;12.10;44.20;;;;;;5030862;28;20124;-75
2021/03/19 11:58:28;;;;;;;2.83;1.37;;;12.60;43.30;;;;;;5033105;28;20022;-76
2021/03/19 12:00:55;;;;;;;11.57;6.77;;;12.40;40.60;;;;;;5016077;28;20029;-76
2021/03/19 12:03:40;;;;;;;5.53;3.33;;;12.70;43.70;;;;;;4999714;28;20045;-75
2021/03/19 12:06:10;;;;;;;11.77;6.80;;;13.00;42.90;;;;;;5017179;28;20029;-76
2021/03/19 12:08:38;;;;;;;13.80;8.40;;;13.30;44.70;;;;;;5032867;28;20057;-76
2021/03/19 12:11:05;;;;;;;5.03;2.90;;;13.40;43.20;;;;;;4999374;28;20177;-74
2021/03/19 12:13:31;;;;;;;4.27;2.50;;;13.40;41.70;;;;;;5012629;28;20508;-75
2021/03/19 12:15:59;;;;;;;5.43;2.67;;;12.90;40.10;;;;;;5034301;28;20494;-75
2021/03/19 12:18:28;;;;;;;16.83;9.50;;;12.70;41.40;;;;;;5015903;28;20097;-76
2021/03/19 12:20:56;;;;;;;10.37;6.07;;;12.10;43.90;;;;;;5016189;28;20029;-75
2021/03/19 12:23:22;;;;;;;7.17;4.60;;;12.30;44.40;;;;;;5016550;28;20026;-76
2021/03/19 12:25:48;;;;;;;8.53;4.30;;;12.30;41.80;;;;;;5014037;28;20029;-74
2021/03/19 12:28:19;;;;;;;14.70;9.20;;;12.40;41.10;;;;;;5015364;28;20029;-81
2021/03/19 12:30:46;;;;;;;12.13;4.93;;;12.60;44.70;;;;;;5014417;28;20495;-74
2021/03/19 12:33:12;;;;;;;7.87;3.23;;;12.60;41.10;;;;;;5012567;28;20044;-74
2021/03/19 12:35:38;;;;;;;11.53;6.83;;;12.50;41.50;;;;;;4998344;28;20059;-75
2021/03/19 12:38:04;;;;;;;8.43;4.40;;;12.50;41.80;;;;;;5014671;28;20044;-75
2021/03/19 12:40:31;;;;;;;3.97;2.20;;;12.50;39.90;;;;;;4997682;28;20029;-80
2021/03/19 12:42:57;;;;;;;6.93;3.00;;;12.00;39.00;;;;;;5032044;28;20029;-74
2021/03/19 12:45:26;;;;;;;2.00;1.17;;;11.90;42.20;;;;;;4997340;28;20041;-75
2021/03/19 12:47:52;;;;;;;2.33;1.00;;;11.90;38.50;;;;;;5031030;28;20033;-75
2021/03/19 12:50:24;;;;;;;2.20;0.90;;;11.50;39.70;;;;;;5031266;28;20037;-79
2021/03/19 12:52:50;;;;;;;5.78;3.13;;;11.20;40.40;;;;;;5033157;28;20030;-76
2021/03/19 12:55:16;;;;;;;10.20;6.47;;;11.10;41.20;;;;;;5013853;28;20030;-77
2021/03/19 12:57:42;;;;;;;8.50;4.97;;;11.40;42.40;;;;;;5032278;28;20040;-75
2021/03/19 13:00:09;;;;;;;5.73;2.53;;;11.70;41.90;;;;;;4997452;28;20030;-74
2021/03/19 13:02:35;;;;;;;7.83;5.30;;;11.80;40.90;;;;;;5014140;28;20028;-75
2021/03/19 13:05:00;;;;;;;3.13;1.87;;;11.90;42.30;;;;;;5015822;28;20041;-75
2021/03/19 13:07:26;;;;;;;2.27;0.90;;;12.00;39.70;;;;;;4999946;28;20040;-76
2021/03/19 13:09:52;;;;;;;1.60;0.73;;;11.70;39.20;;;;;;5017160;28;20029;-75
2021/03/19 13:12:17;;;;;;;6.87;3.13;;;11.00;39.30;;;;;;4999863;28;20052;-75
2021/03/19 13:14:43;;;;;;;10.57;5.93;;;10.80;43.10;;;;;;5015156;28;20034;-75
2021/03/19 13:17:09;;;;;;;6.07;3.80;;;10.90;43.60;;;;;;5016266;28;20041;-76
2021/03/19 13:19:35;;;;;;;1.67;0.90;;;11.30;44.40;;;;;;4999249;28;20034;-74
2021/03/19 13:22:02;;;;;;;6.00;3.73;;;11.50;40.70;;;;;;5016570;28;20053;-76